sensor_id;sensor_type;location;lat;lon;timestamp;pressure;altitude;pressure_sealevel;temperature;humidity
54588;BME280;40484;50.198;19.576;2023-01-26T08:04:48;102046.38;;;5.96;46.94
54588;BME280;40484;50.198;19.576;2023-01-26T08:10:15;102045.31;;;5.95;47.11
54588;BME280;40484;50.198;19.576;2023-01-26T08:15:17;102050.43;;;6.00;47.26
54588;BME280;40484;50.198;19.576;2023-01-26T08:20:18;102036.80;;;6.05;47.07
54588;BME280;40484;50.198;19.576;2023-01-26T08:25:20;102044.80;;;6.09;47.03
54588;BME280;40484;50.198;19.576;2023-01-26T08:30:22;102044.96;;;6.19;46.87
54588;BME280;40484;50.198;19.576;2023-01-26T08:35:23;102045.47;;;6.27;46.89
54588;BME280;40484;50.198;19.576;2023-01-26T08:40:25;102037.83;;;6.27;46.88
54588;BME280;40484;50.198;19.576;2023-01-26T08:45:27;102043.59;;;6.21;46.94
54588;BME280;40484;50.198;19.576;2023-01-26T08:50:29;102041.31;;;6.10;47.24
54588;BME280;40484;50.198;19.576;2023-01-26T08:55:30;102036.29;;;6.03;47.30
54588;BME280;40484;50.198;19.576;2023-01-26T09:00:33;102040.42;;;6.08;47.34
54588;BME280;40484;50.198;19.576;2023-01-26T09:05:36;102050.30;;;6.13;47.22
54588;BME280;40484;50.198;19.576;2023-01-26T09:10:38;102050.90;;;6.12;47.12
54588;BME280;40484;50.198;19.576;2023-01-26T09:15:39;102046.36;;;6.01;47.12
54588;BME280;40484;50.198;19.576;2023-01-26T09:20:41;102043.23;;;6.06;46.93
54588;BME280;40484;50.198;19.576;2023-01-26T09:25:43;102042.52;;;6.09;47.09
54588;BME280;40484;50.198;19.576;2023-01-26T09:30:44;102038.29;;;6.06;47.18
54588;BME280;40484;50.198;19.576;2023-01-26T09:35:46;102025.41;;;6.20;47.15
54588;BME280;40484;50.198;19.576;2023-01-26T09:41:17;102024.45;;;6.35;46.93
54588;BME280;40484;50.198;19.576;2023-01-26T09:52:08;102004.73;;;5.70;47.66
54588;BME280;40484;50.198;19.576;2023-01-26T09:57:19;101988.90;;;5.72;47.71
54588;BME280;40484;50.198;19.576;2023-01-26T10:02:48;101994.26;;;5.51;48.23
54588;BME280;40484;50.198;19.576;2023-01-26T10:07:48;101993.05;;;5.46;48.68
54588;BME280;40484;50.198;19.576;2023-01-26T10:12:49;101990.90;;;5.70;48.46
54588;BME280;40484;50.198;19.576;2023-01-26T10:17:55;101979.46;;;5.90;48.17
54588;BME280;40484;50.198;19.576;2023-01-26T10:23:18;101978.59;;;5.94;48.05
54588;BME280;40484;50.198;19.576;2023-01-26T10:28:44;101989.05;;;6.03;48.06
54588;BME280;40484;50.198;19.576;2023-01-26T10:34:15;101985.00;;;5.89;48.24
54588;BME280;40484;50.198;19.576;2023-01-26T10:39:18;101974.48;;;5.78;48.47
54588;BME280;40484;50.198;19.576;2023-01-26T10:44:33;101978.05;;;5.69;48.49
54588;BME280;40484;50.198;19.576;2023-01-26T10:49:35;101961.63;;;5.65;48.86
54588;BME280;40484;50.198;19.576;2023-01-26T10:54:37;101966.81;;;5.82;48.61
54588;BME280;40484;50.198;19.576;2023-01-26T10:59:42;101962.13;;;5.90;48.28
54588;BME280;40484;50.198;19.576;2023-01-26T11:21:21;101948.02;;;6.22;47.79
54588;BME280;40484;50.198;19.576;2023-01-26T11:47:20;101899.16;;;6.41;47.27
54588;BME280;40484;50.198;19.576;2023-01-26T11:58:03;101892.77;;;6.35;47.32
54588;BME280;40484;50.198;19.576;2023-01-26T12:03:04;101882.39;;;6.53;47.08
54588;BME280;40484;50.198;19.576;2023-01-26T12:08:15;101883.91;;;6.36;46.95
54588;BME280;40484;50.198;19.576;2023-01-26T12:13:29;101877.02;;;6.41;47.01
54588;BME280;40484;50.198;19.576;2023-01-26T12:18:32;101877.95;;;6.49;46.91
54588;BME280;40484;50.198;19.576;2023-01-26T12:29:03;101863.59;;;6.59;46.75
54588;BME280;40484;50.198;19.576;2023-01-26T12:34:10;101858.95;;;6.38;46.49
54588;BME280;40484;50.198;19.576;2023-01-26T12:39:19;101862.53;;;6.45;46.73
54588;BME280;40484;50.198;19.576;2023-01-26T12:44:45;101859.19;;;6.69;46.22
54588;BME280;40484;50.198;19.576;2023-01-26T12:49:59;101845.16;;;6.70;45.88
54588;BME280;40484;50.198;19.576;2023-01-26T12:55:18;101841.89;;;6.65;46.12
54588;BME280;40484;50.198;19.576;2023-01-26T13:00:21;101833.51;;;6.68;45.86
54588;BME280;40484;50.198;19.576;2023-01-26T13:05:28;101833.99;;;6.76;46.14
54588;BME280;40484;50.198;19.576;2023-01-26T13:10:42;101837.30;;;6.76;45.69
54588;BME280;40484;50.198;19.576;2023-01-26T13:15:33;101837.77;;;6.52;46.05
54588;BME280;40484;50.198;19.576;2023-01-26T13:20:47;101840.25;;;6.46;46.03
54588;BME280;40484;50.198;19.576;2023-01-26T13:31:35;101832.95;;;6.38;46.56
54588;BME280;40484;50.198;19.576;2023-01-26T13:36:38;101850.35;;;6.52;46.52
54588;BME280;40484;50.198;19.576;2023-01-26T13:41:45;101840.36;;;6.49;46.43
54588;BME280;40484;50.198;19.576;2023-01-26T13:46:55;101840.11;;;6.61;46.38
54588;BME280;40484;50.198;19.576;2023-01-26T13:51:56;101828.45;;;6.65;46.49
54588;BME280;40484;50.198;19.576;2023-01-26T13:57:03;101825.35;;;6.72;46.34
54588;BME280;40484;50.198;19.576;2023-01-26T14:02:09;101832.79;;;6.71;46.29
54588;BME280;40484;50.198;19.576;2023-01-26T14:07:12;101830.00;;;6.75;46.28
54588;BME280;40484;50.198;19.576;2023-01-26T14:12:22;101836.16;;;6.73;46.46
54588;BME280;40484;50.198;19.576;2023-01-26T14:17:33;101834.48;;;6.72;46.38
54588;BME280;40484;50.198;19.576;2023-01-26T14:22:31;101833.88;;;6.73;46.43
54588;BME280;40484;50.198;19.576;2023-01-26T14:29:26;101832.42;;;6.79;46.25
54588;BME280;40484;50.198;19.576;2023-01-26T14:34:29;101829.13;;;6.72;46.23
54588;BME280;40484;50.198;19.576;2023-01-26T14:39:30;101836.59;;;6.67;46.23
54588;BME280;40484;50.198;19.576;2023-01-26T14:44:32;101831.48;;;6.56;46.33
54588;BME280;40484;50.198;19.576;2023-01-26T14:49:45;101823.98;;;6.53;46.48
54588;BME280;40484;50.198;19.576;2023-01-26T14:54:46;101826.42;;;6.53;46.52
54588;BME280;40484;50.198;19.576;2023-01-26T14:59:55;101820.77;;;6.57;46.62
54588;BME280;40484;50.198;19.576;2023-01-26T15:05:11;101818.66;;;6.55;46.67
54588;BME280;40484;50.198;19.576;2023-01-26T15:10:41;101822.53;;;6.47;46.80
54588;BME280;40484;50.198;19.576;2023-01-26T15:16:03;101825.38;;;6.39;47.18
54588;BME280;40484;50.198;19.576;2023-01-26T15:21:31;101814.44;;;6.53;46.96
54588;BME280;40484;50.198;19.576;2023-01-26T15:26:34;101821.16;;;6.31;46.96
54588;BME280;40484;50.198;19.576;2023-01-26T15:31:37;101813.32;;;6.31;47.03
54588;BME280;40484;50.198;19.576;2023-01-26T15:36:50;101827.13;;;6.18;47.33
54588;BME280;40484;50.198;19.576;2023-01-26T15:42:15;101821.65;;;6.02;47.37
54588;BME280;40484;50.198;19.576;2023-01-26T15:47:16;101822.45;;;5.95;47.70
54588;BME280;40484;50.198;19.576;2023-01-26T15:52:26;101822.09;;;5.67;48.23
54588;BME280;40484;50.198;19.576;2023-01-26T15:57:29;101825.32;;;5.72;48.19
54588;BME280;40484;50.198;19.576;2023-01-26T16:02:30;101818.41;;;5.75;48.19
54588;BME280;40484;50.198;19.576;2023-01-26T16:07:32;101810.68;;;5.66;48.24
54588;BME280;40484;50.198;19.576;2023-01-26T16:12:34;101813.82;;;5.45;48.64
54588;BME280;40484;50.198;19.576;2023-01-26T16:17:35;101817.34;;;5.50;48.66
54588;BME280;40484;50.198;19.576;2023-01-26T16:22:37;101813.62;;;5.56;48.63
54588;BME280;40484;50.198;19.576;2023-01-26T16:28:05;101815.82;;;5.77;48.35
54588;BME280;40484;50.198;19.576;2023-01-26T16:33:08;101818.91;;;5.83;48.16
54588;BME280;40484;50.198;19.576;2023-01-26T16:38:10;101811.12;;;5.85;48.03
54588;BME280;40484;50.198;19.576;2023-01-26T16:43:22;101805.41;;;5.75;48.14
54588;BME280;40484;50.198;19.576;2023-01-26T16:48:23;101803.35;;;5.69;48.18
54588;BME280;40484;50.198;19.576;2023-01-26T16:53:30;101807.81;;;5.79;48.03
54588;BME280;40484;50.198;19.576;2023-01-26T16:58:33;101811.84;;;5.82;47.99
54588;BME280;40484;50.198;19.576;2023-01-26T17:03:35;101799.56;;;5.79;47.92
54588;BME280;40484;50.198;19.576;2023-01-26T17:08:36;101799.09;;;5.65;48.23
54588;BME280;40484;50.198;19.576;2023-01-26T17:13:38;101808.49;;;5.28;48.82
54588;BME280;40484;50.198;19.576;2023-01-26T17:18:39;101802.70;;;5.33;48.72
54588;BME280;40484;50.198;19.576;2023-01-26T17:23:41;101801.94;;;5.46;48.61
54588;BME280;40484;50.198;19.576;2023-01-26T17:28:48;101804.95;;;5.56;48.45
54588;BME280;40484;50.198;19.576;2023-01-26T17:33:50;101796.68;;;5.61;48.23
54588;BME280;40484;50.198;19.576;2023-01-26T17:38:51;101797.94;;;5.61;47.99
54588;BME280;40484;50.198;19.576;2023-01-26T17:43:53;101799.51;;;5.71;48.07
54588;BME280;40484;50.198;19.576;2023-01-26T17:48:55;101800.14;;;5.60;47.92
54588;BME280;40484;50.198;19.576;2023-01-26T17:54:25;101802.44;;;5.79;47.86
54588;BME280;40484;50.198;19.576;2023-01-26T17:59:26;101808.91;;;5.93;47.80
54588;BME280;40484;50.198;19.576;2023-01-26T18:04:28;101813.94;;;6.00;47.75
54588;BME280;40484;50.198;19.576;2023-01-26T18:09:29;101815.20;;;6.13;47.49
54588;BME280;40484;50.198;19.576;2023-01-26T18:14:31;101809.55;;;6.17;47.45
54588;BME280;40484;50.198;19.576;2023-01-26T18:19:32;101815.34;;;6.10;47.24
54588;BME280;40484;50.198;19.576;2023-01-26T18:24:34;101812.61;;;6.10;47.31
54588;BME280;40484;50.198;19.576;2023-01-26T18:29:36;101813.10;;;6.06;47.31
54588;BME280;40484;50.198;19.576;2023-01-26T18:34:38;101822.69;;;6.08;47.36
54588;BME280;40484;50.198;19.576;2023-01-26T18:39:41;101819.52;;;6.07;47.39
54588;BME280;40484;50.198;19.576;2023-01-26T18:44:43;101821.58;;;6.06;47.34
54588;BME280;40484;50.198;19.576;2023-01-26T18:49:45;101815.80;;;6.00;47.30
54588;BME280;40484;50.198;19.576;2023-01-26T18:54:46;101817.73;;;6.02;47.40
54588;BME280;40484;50.198;19.576;2023-01-26T18:59:48;101823.94;;;6.03;47.25
54588;BME280;40484;50.198;19.576;2023-01-26T19:04:49;101823.89;;;6.01;47.25
54588;BME280;40484;50.198;19.576;2023-01-26T19:09:53;101816.18;;;6.05;47.32
54588;BME280;40484;50.198;19.576;2023-01-26T19:14:54;101809.45;;;6.01;47.24
54588;BME280;40484;50.198;19.576;2023-01-26T19:19:56;101812.15;;;5.85;47.41
54588;BME280;40484;50.198;19.576;2023-01-26T19:24:58;101807.16;;;5.77;47.47
54588;BME280;40484;50.198;19.576;2023-01-26T19:30:00;101810.11;;;5.67;47.54
54588;BME280;40484;50.198;19.576;2023-01-26T19:35:01;101810.59;;;5.46;47.91
54588;BME280;40484;50.198;19.576;2023-01-26T19:40:29;101815.88;;;5.50;47.83
54588;BME280;40484;50.198;19.576;2023-01-26T19:45:32;101805.36;;;5.50;47.88
54588;BME280;40484;50.198;19.576;2023-01-26T19:50:35;101806.62;;;5.51;47.85
54588;BME280;40484;50.198;19.576;2023-01-26T19:55:37;101805.58;;;5.62;47.67
54588;BME280;40484;50.198;19.576;2023-01-26T20:00:39;101801.67;;;5.68;47.54
54588;BME280;40484;50.198;19.576;2023-01-26T20:05:41;101799.13;;;5.66;47.54
54588;BME280;40484;50.198;19.576;2023-01-26T20:10:43;101795.79;;;5.71;47.65
54588;BME280;40484;50.198;19.576;2023-01-26T20:15:45;101788.88;;;5.80;47.54
54588;BME280;40484;50.198;19.576;2023-01-26T20:20:51;101788.09;;;5.87;47.36
54588;BME280;40484;50.198;19.576;2023-01-26T20:26:05;101781.55;;;5.94;47.29
54588;BME280;40484;50.198;19.576;2023-01-26T20:31:08;101780.18;;;5.96;47.23
54588;BME280;40484;50.198;19.576;2023-01-26T20:36:12;101779.23;;;5.98;47.06
54588;BME280;40484;50.198;19.576;2023-01-26T20:41:18;101770.79;;;5.99;46.94
54588;BME280;40484;50.198;19.576;2023-01-26T20:46:19;101769.55;;;5.88;46.93
54588;BME280;40484;50.198;19.576;2023-01-26T20:51:23;101781.09;;;5.88;46.97
54588;BME280;40484;50.198;19.576;2023-01-26T20:56:24;101777.87;;;5.89;46.98
54588;BME280;40484;50.198;19.576;2023-01-26T21:01:53;101773.87;;;6.05;46.91
54588;BME280;40484;50.198;19.576;2023-01-26T21:06:54;101784.59;;;5.87;46.90
54588;BME280;40484;50.198;19.576;2023-01-26T21:11:56;101777.18;;;5.88;46.82
54588;BME280;40484;50.198;19.576;2023-01-26T21:16:57;101770.61;;;5.94;46.92
54588;BME280;40484;50.198;19.576;2023-01-26T21:21:59;101772.00;;;5.98;46.94
54588;BME280;40484;50.198;19.576;2023-01-26T21:27:00;101774.32;;;6.07;46.87
54588;BME280;40484;50.198;19.576;2023-01-26T21:32:02;101776.27;;;6.03;46.89
54588;BME280;40484;50.198;19.576;2023-01-26T21:37:04;101766.53;;;6.07;46.90
54588;BME280;40484;50.198;19.576;2023-01-26T21:42:06;101763.03;;;6.02;46.74
54588;BME280;40484;50.198;19.576;2023-01-26T21:47:08;101768.40;;;5.95;46.87
54588;BME280;40484;50.198;19.576;2023-01-26T21:52:09;101755.31;;;5.99;46.97
54588;BME280;40484;50.198;19.576;2023-01-26T21:57:49;101763.31;;;5.92;47.24
54588;BME280;40484;50.198;19.576;2023-01-26T22:03:55;101749.42;;;6.02;46.95
54588;BME280;40484;50.198;19.576;2023-01-26T22:08:57;101747.67;;;6.05;46.99
54588;BME280;40484;50.198;19.576;2023-01-26T22:13:59;101744.85;;;6.01;46.93
54588;BME280;40484;50.198;19.576;2023-01-26T22:19:00;101745.58;;;5.98;47.17
54588;BME280;40484;50.198;19.576;2023-01-26T22:24:04;101747.33;;;6.00;47.11
54588;BME280;40484;50.198;19.576;2023-01-26T22:29:06;101745.93;;;6.03;47.11
54588;BME280;40484;50.198;19.576;2023-01-26T22:34:08;101743.28;;;5.97;47.29
54588;BME280;40484;50.198;19.576;2023-01-26T22:39:13;101742.38;;;6.01;47.35
54588;BME280;40484;50.198;19.576;2023-01-26T22:44:15;101738.52;;;6.03;47.30
54588;BME280;40484;50.198;19.576;2023-01-26T22:49:17;101734.79;;;5.97;47.45
54588;BME280;40484;50.198;19.576;2023-01-26T22:54:18;101729.52;;;5.88;47.47
54588;BME280;40484;50.198;19.576;2023-01-26T22:59:20;101723.78;;;5.94;47.52
